Time;durP1;ratioP1;P1;durP2;ratioP2;P2;SDS_P1;SDS_P2;PMS_P1;PMS_P2;Temp;Humidity;BMP_temperature;BMP_pressure;BME280_temperature;BME280_humidity;BME280_pressure;Samples;Min_cycle;Max_cycle;Signal;HPM_P1;HPM_P2
2022/01/02 00:00:10;;;;;;;10.35;4.55;;;;;;;;;;5024176;28;20186;-68
2022/01/02 00:02:36;;;;;;;7.63;4.53;;;;;;;;;;5013776;28;20208;-68
2022/01/02 00:05:10;;;;;;;8.35;4.68;;;;;;;;;;5021584;28;20190;-68
2022/01/02 00:07:42;;;;;;;8.35;4.65;;;;;;;;;;5018897;28;20190;-69
2022/01/02 00:10:08;;;;;;;8.77;4.15;;;;;;;;;;5024379;28;20205;-68
2022/01/02 00:12:35;;;;;;;9.88;4.78;;;;;;;;;;5000412;28;20190;-68
2022/01/02 00:15:06;;;;;;;7.93;4.80;;;;;;;;;;5025512;28;20727;-70
2022/01/02 00:17:32;;;;;;;8.32;4.10;;;;;;;;;;5014671;28;20194;-68
2022/01/02 00:20:08;;;;;;;8.80;4.75;;;;;;;;;;5024828;28;20560;-69
2022/01/02 00:22:36;;;;;;;7.60;4.22;;;;;;;;;;5014410;28;20661;-69
2022/01/02 00:25:07;;;;;;;7.60;4.43;;;;;;;;;;5024645;28;20184;-69
2022/01/02 00:27:35;;;;;;;8.98;5.15;;;;;;;;;;5019135;28;20194;-69
2022/01/02 00:30:03;;;;;;;8.15;4.60;;;;;;;;;;5026959;28;20264;-69
2022/01/02 00:32:29;;;;;;;8.45;5.15;;;;;;;;;;5024056;28;20312;-69
2022/01/02 00:34:55;;;;;;;6.03;4.40;;;;;;;;;;5020239;28;20297;-69
2022/01/02 00:37:20;;;;;;;10.90;5.10;;;;;;;;;;5005585;28;20658;-72
2022/01/02 00:39:45;;;;;;;8.80;5.40;;;;;;;;;;5018937;28;20553;-71
2022/01/02 00:42:17;;;;;;;9.30;5.35;;;;;;;;;;5023647;28;20629;-72
2022/01/02 00:44:55;;;;;;;9.30;4.95;;;;;;;;;;5022285;28;20178;-71
2022/01/02 00:47:36;;;;;;;9.38;5.38;;;;;;;;;;5021845;28;20197;-72
2022/01/02 00:50:11;;;;;;;10.05;5.00;;;;;;;;;;5020641;28;20190;-72
2022/01/02 00:52:45;;;;;;;9.65;5.53;;;;;;;;;;5024995;28;20196;-72
2022/01/02 00:55:13;;;;;;;8.55;5.68;;;;;;;;;;4999837;28;20262;-72
2022/01/02 00:57:41;;;;;;;11.93;6.22;;;;;;;;;;5024326;28;20197;-72
2022/01/02 01:00:13;;;;;;;9.50;6.22;;;;;;;;;;5017661;28;20633;-71
2022/01/02 01:02:49;;;;;;;10.70;5.93;;;;;;;;;;5022563;28;20221;-72
2022/01/02 01:05:27;;;;;;;12.73;5.97;;;;;;;;;;5011866;28;20181;-72
2022/01/02 01:07:55;;;;;;;9.55;5.53;;;;;;;;;;5026685;28;20182;-71
2022/01/02 01:10:23;;;;;;;9.38;6.00;;;;;;;;;;5015030;28;20205;-71
2022/01/02 01:12:52;;;;;;;9.63;6.00;;;;;;;;;;5008491;28;20597;-71
2022/01/02 01:15:17;;;;;;;9.70;5.43;;;;;;;;;;5016126;28;20225;-70
2022/01/02 01:17:43;;;;;;;10.57;6.28;;;;;;;;;;5026806;28;20633;-70
2022/01/02 01:20:13;;;;;;;9.82;6.00;;;;;;;;;;5015566;28;20193;-71
2022/01/02 01:22:39;;;;;;;10.25;6.00;;;;;;;;;;5022755;28;20187;-70
2022/01/02 01:25:07;;;;;;;12.65;5.50;;;;;;;;;;5022253;28;20260;-70
2022/01/02 01:27:33;;;;;;;11.43;6.13;;;;;;;;;;5019856;28;20548;-71
2022/01/02 01:29:58;;;;;;;10.18;5.80;;;;;;;;;;5023754;28;20300;-72
2022/01/02 01:32:23;;;;;;;10.13;5.78;;;;;;;;;;5021824;28;20229;-71
2022/01/02 01:34:49;;;;;;;11.90;6.43;;;;;;;;;;5024412;28;20371;-72
2022/01/02 01:37:14;;;;;;;10.82;5.70;;;;;;;;;;5022849;28;20224;-72
2022/01/02 01:39:40;;;;;;;14.57;6.43;;;;;;;;;;5022790;28;20578;-71
2022/01/02 01:42:09;;;;;;;9.85;5.47;;;;;;;;;;5020613;28;20184;-71
2022/01/02 01:47:12;;;;;;;12.27;6.68;;;;;;;;;;5016478;28;20280;-71
2022/01/02 01:49:37;;;;;;;7.78;5.68;;;;;;;;;;5023569;28;20577;-72
2022/01/02 01:52:03;;;;;;;14.23;6.47;;;;;;;;;;4997355;28;20186;-72
2022/01/02 01:54:28;;;;;;;8.25;6.18;;;;;;;;;;5026130;28;20284;-72
2022/01/02 01:56:54;;;;;;;11.85;6.13;;;;;;;;;;5018592;28;20214;-72
2022/01/02 01:59:21;;;;;;;10.55;5.63;;;;;;;;;;5023485;28;20597;-73
2022/01/02 02:01:48;;;;;;;9.75;5.95;;;;;;;;;;5025335;28;20239;-72
2022/01/02 02:04:13;;;;;;;11.30;6.07;;;;;;;;;;5016115;28;20275;-72
2022/01/02 02:06:39;;;;;;;11.23;6.25;;;;;;;;;;5024458;28;20645;-72
2022/01/02 02:09:05;;;;;;;8.40;5.18;;;;;;;;;;5015260;28;20268;-72
2022/01/02 02:11:31;;;;;;;8.63;5.80;;;;;;;;;;5021619;28;20213;-71
2022/01/02 02:13:57;;;;;;;14.15;6.68;;;;;;;;;;5014051;28;20630;-72
2022/01/02 02:16:22;;;;;;;10.15;6.13;;;;;;;;;;5021990;28;20248;-71
2022/01/02 02:18:49;;;;;;;12.68;5.88;;;;;;;;;;5016860;28;20202;-71
2022/01/02 02:21:14;;;;;;;9.32;5.53;;;;;;;;;;5022166;28;20216;-71
2022/01/02 02:23:42;;;;;;;11.93;5.40;;;;;;;;;;5003396;28;20213;-71
2022/01/02 02:26:08;;;;;;;9.98;5.32;;;;;;;;;;5021694;28;20590;-71
2022/01/02 02:28:33;;;;;;;12.18;5.53;;;;;;;;;;5015267;28;20209;-71
2022/01/02 02:30:59;;;;;;;10.80;6.25;;;;;;;;;;5021200;28;20210;-71
2022/01/02 02:33:24;;;;;;;9.80;5.90;;;;;;;;;;5003064;28;20293;-71
2022/01/02 02:35:50;;;;;;;8.35;5.60;;;;;;;;;;4995113;28;20528;-70
2022/01/02 02:38:17;;;;;;;13.05;6.13;;;;;;;;;;5005266;28;20237;-70
2022/01/02 02:40:43;;;;;;;9.75;6.00;;;;;;;;;;4996157;28;20231;-71
2022/01/02 02:51:24;;;;;;;11.98;5.70;;;;;;;;;;4997364;28;20234;-70
2022/01/02 02:53:51;;;;;;;11.95;6.28;;;;;;;;;;5020047;28;20187;-70
2022/01/02 02:56:26;;;;;;;13.40;5.90;;;;;;;;;;4997241;28;20242;-70
2022/01/02 02:58:55;;;;;;;12.35;6.07;;;;;;;;;;5004376;28;20557;-70
2022/01/02 03:01:22;;;;;;;10.75;5.90;;;;;;;;;;4997482;28;20198;-69
2022/01/02 03:03:48;;;;;;;10.45;5.50;;;;;;;;;;5001507;28;20699;-70
2022/01/02 03:06:15;;;;;;;9.93;5.55;;;;;;;;;;5001720;28;20179;-69
2022/01/02 03:08:42;;;;;;;12.02;6.45;;;;;;;;;;5001262;28;20295;-69
2022/01/02 03:11:09;;;;;;;14.75;5.80;;;;;;;;;;4998128;28;20205;-70
2022/01/02 03:13:35;;;;;;;11.52;5.63;;;;;;;;;;5002147;28;20217;-70
2022/01/02 03:16:01;;;;;;;10.52;5.72;;;;;;;;;;4994014;28;26048;-69
2022/01/02 03:18:26;;;;;;;12.63;5.18;;;;;;;;;;5002996;28;20186;-69
2022/01/02 03:20:51;;;;;;;10.43;5.35;;;;;;;;;;5004798;28;20209;-69
2022/01/02 03:23:17;;;;;;;10.38;5.10;;;;;;;;;;4995666;28;20278;-69
2022/01/02 03:25:42;;;;;;;10.88;5.60;;;;;;;;;;5005322;28;20194;-70
2022/01/02 03:28:08;;;;;;;15.88;4.93;;;;;;;;;;4992567;28;20365;-70
2022/01/02 03:30:33;;;;;;;11.43;5.38;;;;;;;;;;5002522;28;20270;-70
2022/01/02 03:32:59;;;;;;;12.32;5.40;;;;;;;;;;5008727;28;20228;-70
2022/01/02 03:35:24;;;;;;;8.35;4.38;;;;;;;;;;5024061;28;20313;-70
2022/01/02 03:37:51;;;;;;;9.25;4.70;;;;;;;;;;5018218;28;20229;-69
2022/01/02 03:40:16;;;;;;;11.30;4.95;;;;;;;;;;5026082;28;20178;-70
2022/01/02 03:42:41;;;;;;;9.57;5.07;;;;;;;;;;5019804;28;20548;-70
2022/01/02 03:45:07;;;;;;;11.50;4.65;;;;;;;;;;5022310;28;20216;-70
2022/01/02 03:47:33;;;;;;;11.55;4.90;;;;;;;;;;5020182;28;20196;-69
2022/01/02 03:49:58;;;;;;;12.77;4.65;;;;;;;;;;5007675;28;20293;-69
2022/01/02 03:52:26;;;;;;;12.68;4.60;;;;;;;;;;5026841;28;20206;-71
2022/01/02 03:54:52;;;;;;;9.88;4.55;;;;;;;;;;5019599;28;20206;-70
2022/01/02 03:57:18;;;;;;;13.82;4.88;;;;;;;;;;5025248;28;20625;-71
2022/01/02 03:59:43;;;;;;;10.18;4.90;;;;;;;;;;5016934;28;20200;-70
2022/01/02 04:02:09;;;;;;;9.15;4.55;;;;;;;;;;5027379;28;20178;-69
2022/01/02 04:04:34;;;;;;;12.07;4.30;;;;;;;;;;5018634;28;20673;-70
2022/01/02 04:07:00;;;;;;;12.07;4.22;;;;;;;;;;5027988;28;20717;-70
2022/01/02 04:09:25;;;;;;;9.57;4.18;;;;;;;;;;5018879;28;20664;-69
2022/01/02 04:11:50;;;;;;;12.32;4.07;;;;;;;;;;5028694;28;20637;-68
2022/01/02 04:14:16;;;;;;;11.00;4.10;;;;;;;;;;5014006;28;20189;-69
2022/01/02 04:16:41;;;;;;;7.38;3.53;;;;;;;;;;5028170;28;20289;-69
2022/01/02 04:19:06;;;;;;;9.50;4.38;;;;;;;;;;5015567;28;21249;-69
2022/01/02 04:21:32;;;;;;;6.95;3.85;;;;;;;;;;5028810;28;20708;-69
2022/01/02 04:23:57;;;;;;;15.48;4.53;;;;;;;;;;5024315;28;20194;-69
2022/01/02 04:26:22;;;;;;;10.15;3.88;;;;;;;;;;5018976;28;20270;-70
2022/01/02 04:28:48;;;;;;;10.52;3.65;;;;;;;;;;5026677;28;20235;-70
2022/01/02 04:31:14;;;;;;;18.40;4.03;;;;;;;;;;5018338;28;20251;-70
2022/01/02 04:33:39;;;;;;;8.88;4.13;;;;;;;;;;5025594;28;20226;-70
2022/01/02 04:36:04;;;;;;;8.95;3.78;;;;;;;;;;5024008;28;20232;-70
2022/01/02 04:38:30;;;;;;;10.65;4.05;;;;;;;;;;5024060;28;20336;-70
2022/01/02 04:40:56;;;;;;;11.65;4.10;;;;;;;;;;4999733;28;20190;-70
2022/01/02 04:43:22;;;;;;;11.55;3.88;;;;;;;;;;5026340;28;20188;-70
2022/01/02 04:45:47;;;;;;;12.48;3.70;;;;;;;;;;5018868;28;20190;-70
2022/01/02 04:48:12;;;;;;;14.80;3.97;;;;;;;;;;5024042;28;20663;-70
2022/01/02 04:50:38;;;;;;;12.35;3.90;;;;;;;;;;5007904;28;20187;-70
2022/01/02 04:53:03;;;;;;;10.45;3.53;;;;;;;;;;5007808;28;20190;-70
2022/01/02 04:55:29;;;;;;;11.48;3.85;;;;;;;;;;5025890;28;20210;-70
2022/01/02 04:57:54;;;;;;;8.15;3.78;;;;;;;;;;5018899;28;20178;-72
2022/01/02 05:00:19;;;;;;;9.90;4.18;;;;;;;;;;5024328;28;20272;-73
2022/01/02 05:02:45;;;;;;;18.13;4.13;;;;;;;;;;5001044;28;20228;-72
2022/01/02 05:05:10;;;;;;;16.33;4.43;;;;;;;;;;5024352;28;23430;-72
2022/01/02 05:07:36;;;;;;;13.88;3.78;;;;;;;;;;5002003;28;20281;-72
2022/01/02 05:10:01;;;;;;;12.27;4.00;;;;;;;;;;5024342;28;20602;-72
2022/01/02 05:12:27;;;;;;;13.32;4.35;;;;;;;;;;5018710;28;20566;-72
2022/01/02 05:14:53;;;;;;;12.98;4.20;;;;;;;;;;5024310;28;20340;-72
2022/01/02 05:17:19;;;;;;;16.92;4.65;;;;;;;;;;5019494;28;20181;-72
2022/01/02 05:19:44;;;;;;;12.38;4.07;;;;;;;;;;5021790;28;20178;-72
2022/01/02 05:22:10;;;;;;;10.45;3.97;;;;;;;;;;5002027;28;20653;-72
2022/01/02 05:24:35;;;;;;;11.55;3.85;;;;;;;;;;5023696;28;20182;-72
2022/01/02 05:27:00;;;;;;;8.02;3.83;;;;;;;;;;5019908;28;20645;-72
2022/01/02 05:29:26;;;;;;;12.00;4.43;;;;;;;;;;4998534;28;20252;-72
2022/01/02 05:31:51;;;;;;;10.95;3.72;;;;;;;;;;4992823;28;20246;-72
2022/01/02 05:34:17;;;;;;;11.25;4.50;;;;;;;;;;4994272;28;20609;-72
2022/01/02 05:36:48;;;;;;;13.38;4.50;;;;;;;;;;5007922;28;20183;-73
2022/01/02 05:39:16;;;;;;;9.93;4.13;;;;;;;;;;4996147;28;20608;-73
2022/01/02 05:41:41;;;;;;;12.88;5.10;;;;;;;;;;5006920;28;20190;-72
2022/01/02 05:44:06;;;;;;;13.68;4.63;;;;;;;;;;4996340;28;20539;-73
2022/01/02 05:46:32;;;;;;;17.55;4.75;;;;;;;;;;5006814;28;20186;-73
2022/01/02 05:48:57;;;;;;;8.68;4.15;;;;;;;;;;4997408;28;20182;-73
2022/01/02 05:51:22;;;;;;;14.50;4.93;;;;;;;;;;4999640;28;20182;-73
2022/01/02 05:53:48;;;;;;;13.77;5.53;;;;;;;;;;4995357;28;20770;-73
2022/01/02 05:56:14;;;;;;;16.30;5.05;;;;;;;;;;4998122;28;20605;-73
2022/01/02 05:58:39;;;;;;;11.65;4.53;;;;;;;;;;5004167;28;20540;-74
2022/01/02 06:01:04;;;;;;;13.13;4.95;;;;;;;;;;4995704;28;20390;-72
2022/01/02 06:03:30;;;;;;;11.63;4.93;;;;;;;;;;5003688;28;20673;-73
2022/01/02 06:05:55;;;;;;;17.23;5.00;;;;;;;;;;4992283;28;20187;-72
2022/01/02 06:08:21;;;;;;;16.73;5.55;;;;;;;;;;5002815;28;20183;-72
2022/01/02 06:10:46;;;;;;;14.45;5.25;;;;;;;;;;4997010;28;20587;-72
2022/01/02 06:13:11;;;;;;;10.73;4.80;;;;;;;;;;5003824;28;20183;-72
2022/01/02 06:15:37;;;;;;;12.55;4.50;;;;;;;;;;4995683;28;20572;-71
2022/01/02 06:18:02;;;;;;;19.40;5.18;;;;;;;;;;5006253;28;20272;-71
2022/01/02 06:20:28;;;;;;;15.32;5.43;;;;;;;;;;4996691;28;20214;-71
2022/01/02 06:22:54;;;;;;;15.35;5.40;;;;;;;;;;5004639;28;20236;-71
2022/01/02 06:25:21;;;;;;;17.67;5.40;;;;;;;;;;4994813;28;20190;-70
2022/01/02 06:27:47;;;;;;;12.38;5.28;;;;;;;;;;5006186;28;20640;-72
2022/01/02 06:30:12;;;;;;;14.05;4.90;;;;;;;;;;5003686;28;20234;-70
2022/01/02 06:32:38;;;;;;;16.35;5.22;;;;;;;;;;5008707;28;20253;-71
2022/01/02 06:35:03;;;;;;;11.68;5.15;;;;;;;;;;5021706;28;20205;-70
2022/01/02 06:37:29;;;;;;;21.10;5.53;;;;;;;;;;5021523;28;20645;-71
2022/01/02 06:39:54;;;;;;;15.95;5.45;;;;;;;;;;5021538;28;20183;-70
2022/01/02 06:42:19;;;;;;;14.02;5.32;;;;;;;;;;5017388;28;20735;-70
2022/01/02 06:44:45;;;;;;;13.90;5.55;;;;;;;;;;5003437;28;20182;-70
2022/01/02 06:47:10;;;;;;;11.70;4.93;;;;;;;;;;5017357;28;20182;-71
2022/01/02 06:49:35;;;;;;;13.32;4.90;;;;;;;;;;5021766;28;20251;-71
2022/01/02 06:52:01;;;;;;;14.35;5.13;;;;;;;;;;5019999;28;20235;-70
2022/01/02 06:54:26;;;;;;;13.20;5.25;;;;;;;;;;5021659;28;20730;-70
2022/01/02 06:56:52;;;;;;;11.90;4.85;;;;;;;;;;5016246;28;20193;-70
2022/01/02 06:59:17;;;;;;;13.77;5.18;;;;;;;;;;4998029;28;20183;-72
2022/01/02 07:01:43;;;;;;;11.48;5.63;;;;;;;;;;5025031;28;20201;-71
2022/01/02 07:04:08;;;;;;;13.10;5.47;;;;;;;;;;4997641;28;20186;-70
2022/01/02 07:06:34;;;;;;;14.32;5.38;;;;;;;;;;5023565;28;20280;-70
2022/01/02 07:08:59;;;;;;;15.82;4.97;;;;;;;;;;5016682;28;20228;-70
2022/01/02 07:11:25;;;;;;;16.13;5.28;;;;;;;;;;5024053;28;20174;-69
2022/01/02 07:13:50;;;;;;;11.77;4.78;;;;;;;;;;5020199;28;20614;-70
2022/01/02 07:16:15;;;;;;;14.13;4.53;;;;;;;;;;5025815;28;20224;-70
2022/01/02 07:18:40;;;;;;;12.73;6.07;;;;;;;;;;5020153;28;20327;-70
2022/01/02 07:21:06;;;;;;;11.65;4.55;;;;;;;;;;5027248;28;20194;-70
2022/01/02 07:23:31;;;;;;;11.82;4.55;;;;;;;;;;5019814;28;20189;-70
2022/01/02 07:25:56;;;;;;;10.38;4.32;;;;;;;;;;5025694;28;20182;-70
2022/01/02 07:28:22;;;;;;;17.08;4.70;;;;;;;;;;5020002;28;20208;-70
2022/01/02 07:30:48;;;;;;;11.55;4.50;;;;;;;;;;5027535;28;20210;-71
2022/01/02 07:33:13;;;;;;;15.85;4.93;;;;;;;;;;5023291;28;20225;-70
2022/01/02 07:35:38;;;;;;;15.27;4.85;;;;;;;;;;5023843;28;20234;-70
2022/01/02 07:38:04;;;;;;;7.88;4.72;;;;;;;;;;5027539;28;20190;-70
2022/01/02 07:40:29;;;;;;;7.55;3.78;;;;;;;;;;5020066;28;20212;-70
2022/01/02 07:42:55;;;;;;;15.05;4.38;;;;;;;;;;5027423;28;20182;-69
2022/01/02 07:45:20;;;;;;;10.50;3.97;;;;;;;;;;5015742;28;20237;-70
2022/01/02 07:47:46;;;;;;;11.82;4.13;;;;;;;;;;5027363;28;20182;-69
2022/01/02 07:50:11;;;;;;;14.18;4.25;;;;;;;;;;5014817;28;20189;-70
2022/01/02 07:52:37;;;;;;;9.30;4.10;;;;;;;;;;5028903;28;20274;-70
2022/01/02 07:55:03;;;;;;;12.05;4.40;;;;;;;;;;5016495;28;20213;-70
2022/01/02 07:57:28;;;;;;;10.63;5.25;;;;;;;;;;5027953;28;20186;-70
2022/01/02 07:59:53;;;;;;;8.93;4.25;;;;;;;;;;5015807;28;20688;-70
2022/01/02 08:02:19;;;;;;;10.40;4.47;;;;;;;;;;5025012;28;20182;-70
2022/01/02 08:04:44;;;;;;;12.70;4.53;;;;;;;;;;5023794;28;20549;-70
2022/01/02 08:07:09;;;;;;;9.98;3.88;;;;;;;;;;5018964;28;20193;-70
2022/01/02 08:09:35;;;;;;;13.82;4.40;;;;;;;;;;5022888;28;20196;-71
2022/01/02 08:12:00;;;;;;;15.70;4.47;;;;;;;;;;5020463;28;20260;-71
2022/01/02 08:14:25;;;;;;;13.75;3.97;;;;;;;;;;5025435;28;20289;-71
2022/01/02 08:16:51;;;;;;;7.15;3.78;;;;;;;;;;5026852;28;20186;-71
2022/01/02 08:19:16;;;;;;;12.30;4.43;;;;;;;;;;5023352;28;20305;-72
2022/01/02 08:21:41;;;;;;;15.75;4.80;;;;;;;;;;4999088;28;20186;-71
2022/01/02 08:24:07;;;;;;;13.85;4.68;;;;;;;;;;5006843;28;20189;-71
2022/01/02 08:26:33;;;;;;;10.45;4.68;;;;;;;;;;5018839;28;20236;-71
2022/01/02 08:29:01;;;;;;;14.23;4.65;;;;;;;;;;5023838;28;20190;-71
2022/01/02 08:31:28;;;;;;;13.52;4.25;;;;;;;;;;5018163;28;20213;-71
2022/01/02 08:33:54;;;;;;;13.13;4.53;;;;;;;;;;5023379;28;20182;-71
2022/01/02 08:36:19;;;;;;;9.25;4.30;;;;;;;;;;5023480;28;20210;-72
2022/01/02 08:38:47;;;;;;;11.23;4.13;;;;;;;;;;4322716;28;10000854;-72
2022/01/02 08:41:13;;;;;;;10.40;4.15;;;;;;;;;;5019966;28;20311;-71
2022/01/02 08:43:38;;;;;;;12.40;4.45;;;;;;;;;;5012590;28;20212;-71
2022/01/02 08:46:04;;;;;;;10.85;4.03;;;;;;;;;;5023644;28;20190;-71
2022/01/02 08:48:29;;;;;;;10.07;4.00;;;;;;;;;;5015636;28;20178;-71
2022/01/02 08:50:54;;;;;;;12.82;4.50;;;;;;;;;;5024254;28;20190;-72
2022/01/02 08:53:20;;;;;;;11.98;4.18;;;;;;;;;;5022390;28;20550;-71
2022/01/02 08:55:45;;;;;;;11.18;4.25;;;;;;;;;;5025296;28;20224;-74
2022/01/02 08:58:11;;;;;;;12.00;4.40;;;;;;;;;;5018628;28;20194;-72
2022/01/02 09:00:36;;;;;;;11.32;4.68;;;;;;;;;;5022541;28;20267;-71
2022/01/02 09:03:02;;;;;;;8.75;4.35;;;;;;;;;;5016632;28;20178;-70
2022/01/02 09:05:27;;;;;;;10.90;4.40;;;;;;;;;;5007331;28;20178;-71
2022/01/02 09:07:56;;;;;;;10.73;4.40;;;;;;;;;;5027001;28;20441;-70
2022/01/02 09:10:22;;;;;;;14.85;5.00;;;;;;;;;;4982241;28;20570;-70
2022/01/02 09:12:48;;;;;;;10.45;4.68;;;;;;;;;;5020684;28;20187;-71
2022/01/02 09:15:13;;;;;;;8.63;4.70;;;;;;;;;;5017063;28;20363;-70
2022/01/02 09:17:39;;;;;;;11.32;4.45;;;;;;;;;;5023545;28;20273;-71
2022/01/02 09:20:06;;;;;;;10.88;4.68;;;;;;;;;;4666407;28;10000221;-71
2022/01/02 09:22:32;;;;;;;7.50;4.20;;;;;;;;;;5020188;28;20213;-69
2022/01/02 09:24:57;;;;;;;15.15;4.65;;;;;;;;;;5012666;28;20210;-69
2022/01/02 09:27:23;;;;;;;12.27;4.60;;;;;;;;;;5022243;28;20170;-70
2022/01/02 09:29:48;;;;;;;13.15;4.93;;;;;;;;;;5011693;28;20882;-69
2022/01/02 09:32:13;;;;;;;8.57;4.47;;;;;;;;;;5021259;28;20638;-70
2022/01/02 09:34:39;;;;;;;11.68;4.28;;;;;;;;;;4993399;28;20209;-70
2022/01/02 09:37:04;;;;;;;8.13;3.72;;;;;;;;;;5001888;28;20657;-69
2022/01/02 09:39:30;;;;;;;9.07;4.07;;;;;;;;;;5000567;28;20201;-69
2022/01/02 09:41:55;;;;;;;10.45;4.00;;;;;;;;;;4995160;28;20189;-69
2022/01/02 09:44:21;;;;;;;10.60;4.13;;;;;;;;;;5000818;28;20245;-69
2022/01/02 09:46:51;;;;;;;7.07;3.45;;;;;;;;;;4993677;28;20198;-69
2022/01/02 09:49:17;;;;;;;7.25;3.83;;;;;;;;;;4997048;28;20999;-69
2022/01/02 09:51:43;;;;;;;8.27;3.42;;;;;;;;;;4994676;28;20186;-69
2022/01/02 09:54:10;;;;;;;11.23;3.05;;;;;;;;;;5001099;28;20183;-69
2022/01/02 09:56:35;;;;;;;8.60;3.42;;;;;;;;;;4997617;28;20214;-69
2022/01/02 09:59:02;;;;;;;6.30;3.67;;;;;;;;;;5001905;28;20550;-69
2022/01/02 10:01:29;;;;;;;8.65;3.85;;;;;;;;;;4653885;28;9999747;-70
2022/01/02 10:03:57;;;;;;;5.90;3.38;;;;;;;;;;4999148;28;20245;-70
2022/01/02 10:06:42;;;;;;;10.18;3.70;;;;;;;;;;4996787;28;20185;-69
2022/01/02 10:09:30;;;;;;;9.48;3.63;;;;;;;;;;4996684;28;20294;-69
2022/01/02 10:12:22;;;;;;;12.07;4.13;;;;;;;;;;4997555;28;20178;-68
2022/01/02 10:15:06;;;;;;;8.57;3.15;;;;;;;;;;4999257;28;20252;-69
2022/01/02 10:17:56;;;;;;;7.38;3.53;;;;;;;;;;4994282;28;20186;-69
2022/01/02 10:20:24;;;;;;;6.05;2.92;;;;;;;;;;5000714;28;20716;-69
2022/01/02 10:23:08;;;;;;;7.95;3.28;;;;;;;;;;4994047;28;20187;-69
2022/01/02 10:25:41;;;;;;;6.18;3.25;;;;;;;;;;5005487;28;20179;-69
2022/01/02 10:28:37;;;;;;;11.45;3.63;;;;;;;;;;4997037;28;20186;-69
2022/01/02 10:31:15;;;;;;;5.80;3.25;;;;;;;;;;5005801;28;20210;-69
2022/01/02 10:33:53;;;;;;;6.03;3.28;;;;;;;;;;4665337;28;9999946;-68
2022/01/02 10:36:28;;;;;;;6.65;3.42;;;;;;;;;;5018006;28;20296;-68
2022/01/02 10:39:01;;;;;;;6.15;3.20;;;;;;;;;;5012495;28;20267;-69
2022/01/02 10:41:33;;;;;;;12.77;4.10;;;;;;;;;;5020259;28;20202;-69
2022/01/02 10:44:16;;;;;;;9.05;4.03;;;;;;;;;;5012384;28;20306;-68
2022/01/02 10:47:13;;;;;;;8.80;4.15;;;;;;;;;;5022097;28;20181;-69
2022/01/02 10:50:03;;;;;;;6.88;3.65;;;;;;;;;;5017510;28;20204;-70
2022/01/02 10:52:30;;;;;;;8.25;4.00;;;;;;;;;;5023724;28;20228;-68
2022/01/02 10:54:59;;;;;;;8.38;3.95;;;;;;;;;;5018341;28;20651;-69
2022/01/02 10:57:24;;;;;;;6.18;3.70;;;;;;;;;;5004681;28;20194;-68
2022/01/02 10:59:58;;;;;;;6.22;3.83;;;;;;;;;;5014692;28;20197;-69
2022/01/02 11:02:24;;;;;;;9.20;3.90;;;;;;;;;;5022727;28;20204;-69
2022/01/02 11:04:53;;;;;;;8.20;3.80;;;;;;;;;;5018044;28;20669;-69
2022/01/02 11:07:23;;;;;;;8.23;4.05;;;;;;;;;;4998336;28;20233;-69
2022/01/02 11:09:52;;;;;;;8.35;3.70;;;;;;;;;;5013999;28;20186;-68
2022/01/02 11:12:18;;;;;;;10.93;4.20;;;;;;;;;;5020497;28;20197;-70
2022/01/02 11:14:44;;;;;;;6.35;3.90;;;;;;;;;;5018367;28;23153;-69
2022/01/02 11:17:11;;;;;;;9.40;3.65;;;;;;;;;;5022177;28;20202;-68
2022/01/02 11:19:36;;;;;;;7.20;3.47;;;;;;;;;;5026074;28;20193;-68
2022/01/02 11:22:03;;;;;;;5.72;3.35;;;;;;;;;;4999151;28;20751;-68
2022/01/02 11:24:38;;;;;;;8.10;3.47;;;;;;;;;;5020457;28;20186;-69
2022/01/02 11:27:28;;;;;;;8.45;4.05;;;;;;;;;;5013414;28;20197;-68
2022/01/02 11:29:53;;;;;;;6.38;3.63;;;;;;;;;;4997469;28;20191;-69
2022/01/02 11:32:21;;;;;;;8.75;3.70;;;;;;;;;;5014531;28;20241;-69
2022/01/02 11:34:47;;;;;;;8.77;4.13;;;;;;;;;;5023998;28;20273;-70
2022/01/02 11:37:12;;;;;;;12.73;3.67;;;;;;;;;;5015419;28;20190;-68
2022/01/02 11:39:56;;;;;;;7.13;3.78;;;;;;;;;;5022142;28;20381;-68
2022/01/02 11:42:41;;;;;;;9.00;3.58;;;;;;;;;;5012731;28;20213;-68
2022/01/02 11:45:31;;;;;;;7.65;3.40;;;;;;;;;;5022373;28;20179;-68
2022/01/02 11:47:56;;;;;;;8.70;4.05;;;;;;;;;;5006365;28;20707;-69
2022/01/02 11:50:31;;;;;;;7.38;3.33;;;;;;;;;;5020311;28;20530;-69
2022/01/02 11:53:09;;;;;;;6.90;3.65;;;;;;;;;;4997554;28;20193;-69
2022/01/02 11:55:35;;;;;;;11.05;3.67;;;;;;;;;;5019870;28;20206;-68
2022/01/02 11:58:00;;;;;;;8.13;3.72;;;;;;;;;;5016539;28;20569;-69
2022/01/02 12:00:36;;;;;;;9.43;3.78;;;;;;;;;;5001811;28;20340;-69
2022/01/02 12:03:02;;;;;;;10.95;4.32;;;;;;;;;;5014164;28;20196;-68
2022/01/02 12:05:27;;;;;;;7.20;3.75;;;;;;;;;;5021892;28;20194;-68
2022/01/02 12:07:55;;;;;;;7.72;4.22;;;;;;;;;;4996902;28;20186;-69
2022/01/02 12:10:24;;;;;;;11.90;4.05;;;;;;;;;;5020797;28;20348;-70
2022/01/02 12:13:10;;;;;;;13.45;4.25;;;;;;;;;;5012211;28;20190;-70
2022/01/02 12:15:38;;;;;;;10.25;4.18;;;;;;;;;;5021461;28;20213;-68
2022/01/02 12:18:04;;;;;;;10.93;4.30;;;;;;;;;;4995298;28;20652;-69
2022/01/02 12:20:29;;;;;;;9.05;4.13;;;;;;;;;;5021066;28;20214;-69
2022/01/02 12:22:54;;;;;;;9.90;4.10;;;;;;;;;;5017232;28;20182;-69
2022/01/02 12:25:23;;;;;;;8.35;4.40;;;;;;;;;;5018201;28;20190;-69
2022/01/02 12:27:51;;;;;;;9.63;4.25;;;;;;;;;;5022174;28;20194;-69
2022/01/02 12:30:17;;;;;;;13.73;4.32;;;;;;;;;;5013880;28;20214;-69
2022/01/02 12:32:47;;;;;;;7.22;3.60;;;;;;;;;;5017750;28;20287;-68
2022/01/02 12:35:13;;;;;;;9.40;4.13;;;;;;;;;;5013756;28;20293;-68
2022/01/02 12:37:38;;;;;;;8.45;4.10;;;;;;;;;;5005502;28;20198;-68
2022/01/02 12:40:12;;;;;;;12.02;3.95;;;;;;;;;;5016841;28;20526;-70
2022/01/02 12:42:38;;;;;;;7.90;3.72;;;;;;;;;;5023729;28;20199;-69
2022/01/02 12:45:05;;;;;;;7.85;3.75;;;;;;;;;;5016729;28;20274;-70
2022/01/02 12:47:31;;;;;;;12.13;3.83;;;;;;;;;;5024085;28;20200;-68
2022/01/02 12:49:57;;;;;;;11.30;3.85;;;;;;;;;;5014888;28;20185;-68
2022/01/02 12:52:23;;;;;;;9.23;3.60;;;;;;;;;;5021777;28;20186;-68
2022/01/02 12:54:50;;;;;;;13.90;4.18;;;;;;;;;;5014717;28;20610;-68
2022/01/02 12:57:16;;;;;;;9.88;3.50;;;;;;;;;;5023574;28;20182;-70
2022/01/02 12:59:47;;;;;;;10.73;3.95;;;;;;;;;;5024888;28;20245;-69
2022/01/02 13:02:15;;;;;;;11.55;3.67;;;;;;;;;;5021700;28;20186;-67
2022/01/02 13:04:43;;;;;;;9.32;3.47;;;;;;;;;;5023325;28;20209;-68
2022/01/02 13:07:13;;;;;;;7.18;2.65;;;;;;;;;;5016083;28;20272;-70
2022/01/02 13:09:58;;;;;;;10.25;3.03;;;;;;;;;;5024895;28;20720;-69
2022/01/02 13:12:29;;;;;;;8.85;2.50;;;;;;;;;;5014891;28;20272;-69
2022/01/02 13:15:05;;;;;;;11.13;2.80;;;;;;;;;;5006572;28;20255;-68
2022/01/02 13:17:39;;;;;;;14.15;2.80;;;;;;;;;;5011499;28;20718;-68
2022/01/02 13:20:09;;;;;;;8.55;2.80;;;;;;;;;;5022451;28;20189;-68
2022/01/02 13:23:00;;;;;;;8.98;3.45;;;;;;;;;;5007949;28;20190;-69
2022/01/02 13:25:34;;;;;;;10.82;2.58;;;;;;;;;;5019236;28;20223;-69
2022/01/02 13:28:03;;;;;;;10.18;2.60;;;;;;;;;;5011416;28;20202;-68
2022/01/02 13:30:32;;;;;;;8.65;2.40;;;;;;;;;;5018754;28;20224;-68
2022/01/02 13:33:01;;;;;;;7.15;2.38;;;;;;;;;;4662988;28;9999990;-68
2022/01/02 13:35:28;;;;;;;9.48;2.33;;;;;;;;;;5007054;28;20210;-69
2022/01/02 13:38:07;;;;;;;9.27;2.50;;;;;;;;;;5010679;28;20218;-68
2022/01/02 13:40:34;;;;;;;5.55;1.77;;;;;;;;;;5016434;28;20193;-69
2022/01/02 13:43:11;;;;;;;7.40;2.22;;;;;;;;;;5005207;28;20675;-68
2022/01/02 13:45:43;;;;;;;5.78;1.20;;;;;;;;;;5018600;28;20190;-69
2022/01/02 13:48:15;;;;;;;10.77;2.30;;;;;;;;;;5019316;28;20174;-68
2022/01/02 13:50:43;;;;;;;8.50;1.67;;;;;;;;;;5018398;28;20540;-69
2022/01/02 13:53:41;;;;;;;7.15;1.60;;;;;;;;;;5011747;28;20248;-68
2022/01/02 13:56:58;;;;;;;7.68;1.60;;;;;;;;;;5076548;28;20289;-68
2022/01/02 13:59:25;;;;;;;9.77;2.20;;;;;;;;;;5054550;28;20195;-68
2022/01/02 14:01:50;;;;;;;6.38;1.50;;;;;;;;;;5052800;28;20193;-67
2022/01/02 14:04:17;;;;;;;7.55;1.63;;;;;;;;;;5055646;28;20183;-69
2022/01/02 14:06:42;;;;;;;5.10;1.55;;;;;;;;;;5062718;28;20866;-68
2022/01/02 14:09:14;;;;;;;11.45;1.92;;;;;;;;;;5054313;28;20177;-68
2022/01/02 14:11:41;;;;;;;10.02;1.25;;;;;;;;;;5059661;28;20197;-68
2022/01/02 14:14:16;;;;;;;5.40;1.42;;;;;;;;;;5058155;28;20189;-69
2022/01/02 14:19:38;;;;;;;5.57;1.55;;;;;;;;;;5055705;28;20542;-69
2022/01/02 14:22:04;;;;;;;6.00;1.40;;;;;;;;;;5054477;28;20193;-68
2022/01/02 14:24:30;;;;;;;8.80;1.80;;;;;;;;;;5059786;28;20219;-67
2022/01/02 14:26:56;;;;;;;9.30;2.08;;;;;;;;;;5055923;28;20189;-68
2022/01/02 14:29:22;;;;;;;6.97;1.50;;;;;;;;;;5048960;28;20351;-68
2022/01/02 14:31:48;;;;;;;5.85;1.35;;;;;;;;;;5057221;28;20204;-69
2022/01/02 14:34:14;;;;;;;9.40;1.38;;;;;;;;;;5058033;28;20207;-68
2022/01/02 14:36:39;;;;;;;8.75;1.23;;;;;;;;;;5053834;28;20228;-68
2022/01/02 14:39:08;;;;;;;4.05;1.10;;;;;;;;;;5058417;28;20184;-69
2022/01/02 14:41:40;;;;;;;8.57;1.70;;;;;;;;;;5057813;28;20238;-68
2022/01/02 14:44:11;;;;;;;5.05;1.20;;;;;;;;;;5055482;28;20292;-68
2022/01/02 14:46:41;;;;;;;7.18;1.45;;;;;;;;;;5058348;28;20580;-68
2022/01/02 14:49:06;;;;;;;9.52;1.42;;;;;;;;;;5054843;28;20185;-68
2022/01/02 14:51:31;;;;;;;7.15;1.40;;;;;;;;;;5057461;28;20203;-68
2022/01/02 14:53:57;;;;;;;6.25;1.13;;;;;;;;;;5057095;28;20180;-69